首页
METAR-TAF:

METAR-TAF

机场 :

Moody Air Force Base

Valdosta, 喬治亞, 美国

纬度: 30-58N, 经度: 083-12W, 海拔: 71米

当前天气观测

该预报发布于26分钟前的23:56 UTC
风速3节,风向西转西北
温度 14°C
湿度 63%
气压 1022 hPa
能見度: 16.1公里
天空无云

METAR: KVAD 182356Z AUTO 30003KT 10SM CLR 14/07 A3017 RMK AO2 SLP219 T01440065 10187 20144 53007 $

时间: 20:22 (00:22 UTC)

预报

该预报发布于8小时和22分钟前的16:00 UTC
预报有效从18日的 16点(UTC)到 19日的 22点(UTC)
风速9节,风向
能见度10公里或以上
少量云层高于20000英尺
成为
从 19日的 07点(UTC)到 19日的 08点(UTC)
风速9节,风向北转东北
能见度10公里或以上
少量云层高于21000英尺
成为
从 19日的 14点(UTC)到 19日的 15点(UTC)
风速10节,风向东北,有时为15节阵风
能见度10公里或以上
少量云层高于1500英尺
少量云层高于18000英尺

TAF: KVAD 181600Z 1816/1922 36009KT 9999 FEW200 QNH3017INS BECMG 1907/1908 03009KT 9999 FEW210 QNH3025INS BECMG 1914/1915 05010G15KT 9999 FEW015 FEW180 QNH3019INS TX20/1819Z TN06/1912Z

超过4000个机场的气象观测和天气预报(METAR&TAF报告)。

可查询的气象台以黄色和红色小点在地图上表示。

将鼠标移到小点上方,可查看气象台名称。

然后点击查看天气观测和预报。

如需切换地图:点击带黑十字的绿色按钮放大地图;点击带横线的绿色按钮缩小地图;或者点击绿色箭头查看邻近地区的地图。


METAR-TAF: